createdAt,value
2023-03-14T00:00:14.906Z,98578.13
2023-03-14T00:02:41.629Z,98591.09
2023-03-14T00:05:09.668Z,98587.81
2023-03-14T00:07:38.148Z,98590.53
2023-03-14T00:10:13.380Z,98598.31
2023-03-14T00:12:40.330Z,98615.28
2023-03-14T00:15:08.044Z,98627.44
2023-03-14T00:17:36.231Z,98643.69
2023-03-14T00:20:08.956Z,98646.72
2023-03-14T00:22:36.651Z,98634.00
2023-03-14T00:25:03.829Z,98644.56
2023-03-14T00:27:30.350Z,98637.03
2023-03-14T00:29:56.908Z,98651.13
2023-03-14T00:32:23.411Z,98633.44
2023-03-14T00:34:50.032Z,98632.78
2023-03-14T00:37:16.555Z,98632.88
2023-03-14T00:39:43.110Z,98638.53
2023-03-14T00:42:09.609Z,98641.97
2023-03-14T00:44:36.199Z,98636.16
2023-03-14T00:47:02.670Z,98629.94
2023-03-14T00:49:29.153Z,98626.47
2023-03-14T00:51:55.622Z,98630.84
2023-03-14T00:54:22.301Z,98612.91
2023-03-14T00:56:48.985Z,98625.97
2023-03-14T00:59:16.597Z,98617.84
2023-03-14T01:01:43.187Z,98634.44
2023-03-14T01:04:09.758Z,98621.16
2023-03-14T01:06:36.311Z,98598.06
2023-03-14T01:09:03.653Z,98629.25
2023-03-14T01:11:35.770Z,98624.94
2023-03-14T01:14:03.501Z,98636.91
2023-03-14T01:16:33.105Z,98645.59
2023-03-14T01:18:59.702Z,98649.38
2023-03-14T01:21:31.597Z,98655.22
2023-03-14T01:24:00.056Z,98650.19
2023-03-14T01:26:28.130Z,98664.00
2023-03-14T01:28:55.935Z,98644.41
2023-03-14T01:31:22.619Z,98641.75
2023-03-14T01:33:49.152Z,98649.84
2023-03-14T01:36:15.938Z,98650.44
2023-03-14T01:38:42.732Z,98649.53
2023-03-14T01:41:15.361Z,98640.72
2023-03-14T01:43:42.184Z,98627.59
2023-03-14T01:46:09.858Z,98637.50
2023-03-14T01:49:00.643Z,98639.63
2023-03-14T01:51:48.385Z,98633.75
2023-03-14T01:54:41.545Z,98624.03
2023-03-14T01:57:14.889Z,98616.47
2023-03-14T01:59:46.275Z,98608.38
2023-03-14T02:02:13.489Z,98608.72
2023-03-14T02:04:40.728Z,98607.81
2023-03-14T02:07:13.944Z,98619.09
2023-03-14T02:09:42.308Z,98610.84
2023-03-14T02:12:10.463Z,98615.94
2023-03-14T02:14:38.647Z,98615.56
2023-03-14T02:17:08.367Z,98604.75
2023-03-14T02:19:55.736Z,98595.72
2023-03-14T02:22:22.363Z,98590.22
2023-03-14T02:25:28.806Z,98605.22
2023-03-14T02:27:55.424Z,98590.34
2023-03-14T02:30:29.008Z,98556.28
2023-03-14T02:32:59.838Z,98600.44
2023-03-14T02:35:30.587Z,98587.16
2023-03-14T02:38:25.618Z,98579.91
2023-03-14T02:40:52.080Z,98566.97
2023-03-14T02:43:18.618Z,98572.38
2023-03-14T02:45:49.283Z,98571.56
2023-03-14T02:48:27.383Z,98569.44
2023-03-14T02:50:57.118Z,98574.13
2023-03-14T02:53:30.145Z,98564.03
2023-03-14T02:55:56.608Z,98552.91
2023-03-14T02:58:23.069Z,98552.91
2023-03-14T03:00:49.592Z,98551.75
2023-03-14T03:03:16.573Z,98549.50
2023-03-14T03:05:46.104Z,98542.56
2023-03-14T03:08:12.541Z,98545.38
2023-03-14T03:10:39.171Z,98545.59
2023-03-14T03:13:05.672Z,98549.50
2023-03-14T03:15:32.113Z,98543.13
2023-03-14T03:17:58.546Z,98540.81
2023-03-14T03:20:25.107Z,98536.78
2023-03-14T03:22:51.762Z,98530.13
2023-03-14T03:25:18.259Z,98536.69
2023-03-14T03:27:44.756Z,98529.97
2023-03-14T03:30:11.850Z,98528.34
2023-03-14T03:32:38.346Z,98526.22
2023-03-14T03:35:05.667Z,98526.09
2023-03-14T03:37:33.059Z,98532.44
2023-03-14T03:39:59.660Z,98530.41
2023-03-14T03:42:30.367Z,98532.88
2023-03-14T03:44:56.839Z,98525.38
2023-03-14T03:47:23.331Z,98525.22
2023-03-14T03:49:49.864Z,98523.59
2023-03-14T03:52:17.454Z,98518.19
2023-03-14T03:54:43.886Z,98523.34
2023-03-14T03:57:10.331Z,98529.53
2023-03-14T03:59:36.824Z,98529.31
2023-03-14T04:02:03.658Z,98491.19
2023-03-14T04:04:30.312Z,98523.53
2023-03-14T04:06:56.868Z,98520.84
2023-03-14T04:09:23.407Z,98514.44
2023-03-14T04:11:49.883Z,98518.22
2023-03-14T04:14:16.960Z,98519.84
2023-03-14T04:16:43.505Z,98521.75
2023-03-14T04:19:09.929Z,98521.53
2023-03-14T04:21:36.347Z,98519.97
2023-03-14T04:24:02.912Z,98515.03
2023-03-14T04:26:29.377Z,98513.97
2023-03-14T04:28:55.871Z,98513.50
2023-03-14T04:31:22.563Z,98494.00
2023-03-14T04:33:49.538Z,98503.63
2023-03-14T04:36:15.998Z,98504.16
2023-03-14T04:38:42.429Z,98499.59
2023-03-14T04:41:08.981Z,98502.75
2023-03-14T04:43:35.424Z,98510.31
2023-03-14T04:46:01.919Z,98508.41
2023-03-14T04:48:28.592Z,98501.38
2023-03-14T04:50:55.067Z,98497.13
2023-03-14T04:53:21.545Z,98493.63
2023-03-14T04:55:52.178Z,98484.09
2023-03-14T04:58:19.587Z,98476.81
2023-03-14T05:00:46.485Z,98476.22
2023-03-14T05:03:13.117Z,98479.19
2023-03-14T05:05:39.948Z,98474.59
2023-03-14T05:08:06.457Z,98461.31
2023-03-14T05:10:33.055Z,98464.25
2023-03-14T05:12:59.468Z,98454.59
2023-03-14T05:15:26.028Z,98457.81
2023-03-14T05:17:53.019Z,98452.91
2023-03-14T05:20:19.427Z,98449.47
2023-03-14T05:22:45.928Z,98430.44
2023-03-14T05:25:12.591Z,98441.38
2023-03-14T05:27:39.034Z,98438.91
2023-03-14T05:30:06.699Z,98443.56
2023-03-14T05:32:33.781Z,98436.28
2023-03-14T05:35:00.442Z,98446.50
2023-03-14T05:37:27.440Z,98437.13
2023-03-14T05:39:54.045Z,98443.56
2023-03-14T05:42:20.859Z,98443.91
2023-03-14T05:44:47.311Z,98435.31
2023-03-14T05:47:13.782Z,98440.72
2023-03-14T05:49:40.276Z,98434.50
2023-03-14T05:52:06.788Z,98442.84
2023-03-14T05:54:33.251Z,98439.09
2023-03-14T05:56:59.672Z,98435.31
2023-03-14T05:59:26.146Z,98436.16
2023-03-14T06:01:52.689Z,98435.81
2023-03-14T06:04:19.179Z,98439.34
2023-03-14T06:06:45.695Z,98436.94
2023-03-14T06:09:12.152Z,98433.09
2023-03-14T06:11:38.741Z,98427.09
2023-03-14T06:14:05.284Z,98421.13
2023-03-14T06:16:33.101Z,98414.06
2023-03-14T06:18:59.738Z,98423.38
2023-03-14T06:21:26.477Z,98420.06
2023-03-14T06:23:52.882Z,98415.81
2023-03-14T06:26:19.368Z,98413.34
2023-03-14T06:28:45.841Z,98415.25
2023-03-14T06:31:12.275Z,98419.09
2023-03-14T06:33:38.821Z,98410.50
2023-03-14T06:36:05.581Z,98415.03
2023-03-14T06:38:32.073Z,98411.38
2023-03-14T06:41:04.489Z,98419.56
2023-03-14T06:43:30.957Z,98422.69
2023-03-14T06:45:57.661Z,98415.91
2023-03-14T06:48:24.153Z,98418.63
2023-03-14T06:50:50.632Z,98417.22
2023-03-14T06:53:17.081Z,98421.41
2023-03-14T06:55:44.200Z,98426.91
2023-03-14T06:58:11.037Z,98411.81
2023-03-14T07:00:37.576Z,98429.13
2023-03-14T07:03:03.998Z,98432.88
2023-03-14T07:05:30.487Z,98429.19
2023-03-14T07:07:57.438Z,98432.25
2023-03-14T07:10:23.856Z,98426.34
2023-03-14T07:12:50.282Z,98424.78
2023-03-14T07:15:18.875Z,98424.44
2023-03-14T07:17:46.025Z,98434.09
2023-03-14T07:20:12.523Z,98431.28
2023-03-14T07:22:38.998Z,98438.91
2023-03-14T07:25:06.429Z,98442.41
2023-03-14T07:27:32.887Z,98436.84
2023-03-14T07:29:59.315Z,98452.09
2023-03-14T07:32:25.896Z,98452.16
2023-03-14T07:34:52.342Z,98456.56
2023-03-14T07:37:18.785Z,98457.16
2023-03-14T07:39:45.250Z,98463.38
2023-03-14T07:42:12.039Z,98467.50
2023-03-14T07:44:38.526Z,98461.03
2023-03-14T07:47:05.092Z,98469.00
2023-03-14T07:49:31.526Z,98466.38
2023-03-14T07:51:59.086Z,98466.06
2023-03-14T07:54:25.973Z,98464.97
2023-03-14T07:56:53.016Z,98466.84
2023-03-14T07:59:19.920Z,98469.81
2023-03-14T08:01:46.360Z,98476.72
2023-03-14T08:04:12.877Z,98472.69
2023-03-14T08:06:39.414Z,98455.13
2023-03-14T08:09:05.964Z,98489.59
2023-03-14T08:11:32.474Z,98482.50
2023-03-14T08:13:59.099Z,98487.13
2023-03-14T08:16:25.649Z,98482.25
2023-03-14T08:18:52.269Z,98477.44
2023-03-14T08:21:18.728Z,98482.34
2023-03-14T08:23:45.175Z,98483.91
2023-03-14T08:26:14.150Z,98484.94
2023-03-14T08:28:40.672Z,98483.59
2023-03-14T08:31:07.400Z,98485.66
2023-03-14T08:33:33.932Z,98485.78
2023-03-14T08:36:01.607Z,98486.16
2023-03-14T08:38:28.133Z,98492.94
2023-03-14T08:41:02.720Z,98498.22
2023-03-14T08:43:30.001Z,98496.28
2023-03-14T08:46:00.876Z,98499.47
2023-03-14T08:48:27.446Z,98502.13
2023-03-14T08:50:54.174Z,98502.88
2023-03-14T08:53:21.873Z,98502.88
2023-03-14T08:55:48.358Z,98501.50
2023-03-14T08:58:14.832Z,98502.63
2023-03-14T09:00:41.302Z,98515.16
2023-03-14T09:03:07.893Z,98515.88
2023-03-14T09:05:35.474Z,98510.63
2023-03-14T09:08:02.298Z,98521.41
2023-03-14T09:10:28.785Z,98521.81
2023-03-14T09:12:55.230Z,98527.28
2023-03-14T09:15:21.714Z,98532.13
2023-03-14T09:17:48.164Z,98535.41
2023-03-14T09:20:15.472Z,98534.13
2023-03-14T09:22:42.122Z,98542.97
2023-03-14T09:25:08.956Z,98552.75
2023-03-14T09:27:35.354Z,98543.41
2023-03-14T09:30:01.952Z,98561.97
2023-03-14T09:32:28.523Z,98561.97
2023-03-14T09:34:55.054Z,98573.97
2023-03-14T09:37:21.887Z,98579.69
2023-03-14T09:39:48.324Z,98602.09
2023-03-14T09:42:19.378Z,98628.47
2023-03-14T09:45:07.980Z,98662.91
2023-03-14T09:47:36.721Z,98681.13
2023-03-14T09:50:06.426Z,98694.47
2023-03-14T09:52:38.286Z,98706.53
2023-03-14T09:55:23.109Z,98714.09
2023-03-14T09:57:52.438Z,98734.78
2023-03-14T10:00:21.527Z,98748.78
2023-03-14T10:02:55.358Z,98757.19
2023-03-14T10:05:24.193Z,98769.25
2023-03-14T10:07:50.885Z,98769.72
2023-03-14T10:10:23.264Z,98785.34
2023-03-14T10:12:58.999Z,98797.47
2023-03-14T10:15:35.654Z,98805.34
2023-03-14T10:18:04.742Z,98817.09
2023-03-14T10:20:35.550Z,98821.59
2023-03-14T10:23:05.606Z,98833.00
2023-03-14T10:25:34.914Z,98845.13
2023-03-14T10:28:02.670Z,98856.91
2023-03-14T10:30:45.636Z,98864.84
2023-03-14T10:33:20.462Z,98879.69
2023-03-14T10:35:53.579Z,98888.97
2023-03-14T10:38:20.141Z,98907.25
2023-03-14T10:40:53.860Z,98905.31
2023-03-14T10:43:27.674Z,98917.44
2023-03-14T10:46:13.258Z,98926.97
2023-03-14T10:48:42.903Z,98938.28
2023-03-14T10:51:29.143Z,98944.72
2023-03-14T10:54:01.541Z,98948.66
2023-03-14T10:56:35.306Z,98950.84
2023-03-14T10:59:03.114Z,98954.59
2023-03-14T11:01:51.569Z,98959.56
2023-03-14T11:04:36.886Z,98974.56
2023-03-14T11:07:22.426Z,98982.81
2023-03-14T11:10:03.751Z,98987.72
2023-03-14T11:12:53.338Z,98993.13
2023-03-14T11:15:33.743Z,98997.06
2023-03-14T11:18:30.716Z,99003.75
2023-03-14T11:21:04.165Z,98998.59
2023-03-14T11:24:09.205Z,99012.03
2023-03-14T11:26:46.920Z,99018.00
2023-03-14T11:29:38.345Z,99035.81
2023-03-14T11:32:14.021Z,99038.28
2023-03-14T11:34:50.709Z,99039.16
2023-03-14T11:37:27.875Z,99034.97
2023-03-14T11:40:06.813Z,99042.78
2023-03-14T11:42:33.717Z,99057.63
2023-03-14T11:45:02.335Z,99055.69
2023-03-14T11:47:38.754Z,99071.44
2023-03-14T11:50:19.834Z,99088.84
2023-03-14T11:52:57.552Z,99153.88
2023-03-14T11:55:28.917Z,99148.84
2023-03-14T11:58:19.152Z,99142.44
2023-03-14T12:00:49.009Z,99145.75
2023-03-14T12:03:26.897Z,99145.31
2023-03-14T12:06:11.683Z,99148.22
2023-03-14T12:08:51.854Z,99154.19
2023-03-14T12:11:48.519Z,99171.16
2023-03-14T12:14:25.794Z,99172.16
2023-03-14T12:17:21.183Z,99185.00
2023-03-14T12:19:48.709Z,99195.56
2023-03-14T12:22:23.438Z,99212.72
2023-03-14T12:24:54.721Z,99223.44
2023-03-14T12:27:49.307Z,99226.31
2023-03-14T12:30:35.483Z,99240.06
2023-03-14T12:33:11.137Z,99250.47
2023-03-14T12:35:58.979Z,99258.94
2023-03-14T12:38:37.585Z,99275.34
2023-03-14T12:41:45.300Z,99293.19
2023-03-14T12:44:30.113Z,99297.78
2023-03-14T12:47:21.381Z,99298.78
2023-03-14T12:49:51.454Z,99324.06
2023-03-14T12:52:22.874Z,99318.06
2023-03-14T12:54:55.382Z,99326.13
2023-03-14T12:57:26.894Z,99336.28
2023-03-14T13:00:00.732Z,99340.25
2023-03-14T13:02:41.022Z,99337.53
2023-03-14T13:05:20.826Z,99369.03
2023-03-14T13:07:47.269Z,99371.91
2023-03-14T13:10:20.327Z,99378.53
2023-03-14T13:12:54.871Z,99368.34
2023-03-14T13:15:26.623Z,99388.03
2023-03-14T13:17:57.624Z,99397.16
2023-03-14T13:20:36.556Z,99401.69
2023-03-14T13:23:03.572Z,99412.91
2023-03-14T13:25:33.800Z,99424.56
2023-03-14T13:28:02.377Z,99435.31
2023-03-14T13:30:36.708Z,99434.97
2023-03-14T13:33:05.745Z,99431.25
2023-03-14T13:35:42.421Z,99437.88
2023-03-14T13:38:25.818Z,99442.88
2023-03-14T13:41:00.046Z,99455.75
2023-03-14T13:43:34.370Z,99458.22
2023-03-14T13:46:21.008Z,99455.50
2023-03-14T13:49:01.038Z,99476.03
2023-03-14T13:51:32.415Z,99491.28
2023-03-14T13:54:03.922Z,99497.88
2023-03-14T13:56:33.187Z,99507.66
2023-03-14T13:58:59.798Z,99506.56
2023-03-14T14:01:32.338Z,99516.06
2023-03-14T14:04:06.580Z,99524.56
2023-03-14T14:06:45.331Z,99542.00
2023-03-14T14:09:40.415Z,99546.13
2023-03-14T14:12:16.781Z,99550.31
2023-03-14T14:14:53.963Z,99544.25
2023-03-14T14:17:27.749Z,99560.63
2023-03-14T14:19:57.361Z,99570.47
2023-03-14T14:22:24.064Z,99566.97
2023-03-14T14:24:52.803Z,99581.69
2023-03-14T14:27:28.095Z,99580.69
2023-03-14T14:30:04.441Z,99608.31
2023-03-14T14:32:41.255Z,99606.81
2023-03-14T14:35:11.186Z,99611.28
2023-03-14T14:37:45.692Z,99621.50
2023-03-14T14:40:22.648Z,99626.44
2023-03-14T14:42:50.566Z,99623.06
2023-03-14T14:45:28.868Z,99640.13
2023-03-14T14:48:02.203Z,99646.34
2023-03-14T14:50:39.214Z,99654.66
2023-03-14T14:53:25.648Z,99664.22
2023-03-14T14:55:54.735Z,99670.44
2023-03-14T14:58:23.999Z,99672.06
2023-03-14T15:00:54.933Z,99679.09
2023-03-14T15:03:21.441Z,99688.28
2023-03-14T15:05:48.203Z,99692.81
2023-03-14T15:08:14.752Z,99698.88
2023-03-14T15:10:41.286Z,99711.91
2023-03-14T15:13:07.752Z,99716.88
2023-03-14T15:15:35.594Z,99721.50
2023-03-14T15:18:02.071Z,99724.38
2023-03-14T15:20:28.690Z,99719.00
2023-03-14T15:22:55.225Z,99723.59
2023-03-14T15:25:47.479Z,99736.50
2023-03-14T15:28:14.741Z,99747.28
2023-03-14T15:30:41.151Z,99751.88
2023-03-14T15:33:09.832Z,99757.47
2023-03-14T15:35:38.140Z,99758.94
2023-03-14T15:38:04.720Z,99770.28
2023-03-14T15:40:31.583Z,99783.38
2023-03-14T15:42:58.035Z,99778.38
2023-03-14T15:45:24.537Z,99786.06
2023-03-14T15:47:51.046Z,99787.06
2023-03-14T15:50:17.666Z,99799.34
2023-03-14T15:52:44.183Z,99801.09
2023-03-14T15:55:10.625Z,99801.88
2023-03-14T15:57:37.119Z,99811.00
2023-03-14T16:00:05.453Z,99813.03
2023-03-14T16:02:31.946Z,99816.22
2023-03-14T16:04:58.549Z,99826.41
2023-03-14T16:07:24.973Z,99831.56
2023-03-14T16:09:51.500Z,99837.16
2023-03-14T16:12:17.994Z,99836.50
2023-03-14T16:14:44.762Z,99843.13
2023-03-14T16:17:14.366Z,99848.84
2023-03-14T16:19:40.796Z,99846.66
2023-03-14T16:22:07.361Z,99849.84
2023-03-14T16:24:33.799Z,99860.06
2023-03-14T16:27:00.244Z,99866.22
2023-03-14T16:29:27.061Z,99871.28
2023-03-14T16:31:53.690Z,99875.09
2023-03-14T16:34:20.275Z,99877.78
2023-03-14T16:36:47.755Z,99881.56
2023-03-14T16:39:14.332Z,99887.63
2023-03-14T16:41:40.812Z,99887.88
2023-03-14T16:44:07.312Z,99901.34
2023-03-14T16:46:34.798Z,99907.50
2023-03-14T16:49:01.359Z,99908.16
2023-03-14T16:51:28.282Z,99912.81
2023-03-14T16:53:54.838Z,99927.38
2023-03-14T16:56:21.454Z,99941.41
2023-03-14T16:58:49.184Z,99944.38
2023-03-14T17:01:18.473Z,99941.22
2023-03-14T17:03:46.245Z,99951.47
2023-03-14T17:06:15.596Z,99954.34
2023-03-14T17:08:42.143Z,99956.72
2023-03-14T17:11:09.021Z,99974.56
2023-03-14T17:13:35.998Z,99984.97
2023-03-14T17:16:02.671Z,99987.38
2023-03-14T17:18:31.184Z,99990.56
2023-03-14T17:20:59.252Z,99996.69
2023-03-14T17:23:29.900Z,100005.59
2023-03-14T17:25:56.779Z,100010.50
2023-03-14T17:28:24.922Z,100024.25
2023-03-14T17:30:51.778Z,100039.75
2023-03-14T17:33:18.353Z,100040.47
2023-03-14T17:35:45.048Z,100042.44
2023-03-14T17:38:11.607Z,100059.06
2023-03-14T17:40:38.144Z,100064.06
2023-03-14T17:43:04.594Z,100075.22
2023-03-14T17:45:31.106Z,100074.94
2023-03-14T17:47:57.559Z,100075.22
2023-03-14T17:50:24.112Z,100091.06
2023-03-14T17:52:50.670Z,100091.72
2023-03-14T17:55:17.173Z,100102.84
2023-03-14T17:57:44.922Z,100109.09
2023-03-14T18:00:12.552Z,100120.75
2023-03-14T18:02:41.336Z,100124.16
2023-03-14T18:05:08.528Z,100142.56
2023-03-14T18:07:36.096Z,100147.31
2023-03-14T18:10:03.406Z,100149.69
2023-03-14T18:12:29.840Z,100153.09
2023-03-14T18:14:56.288Z,100148.06
2023-03-14T18:17:22.782Z,100150.59
2023-03-14T18:19:49.367Z,100166.94
2023-03-14T18:22:16.045Z,100168.16
2023-03-14T18:24:42.775Z,100173.19
2023-03-14T18:27:09.258Z,100182.28
2023-03-14T18:29:36.878Z,100179.50
2023-03-14T18:32:03.358Z,100196.38
2023-03-14T18:34:29.822Z,100200.22
2023-03-14T18:36:56.346Z,100208.53
2023-03-14T18:39:22.799Z,100216.13
2023-03-14T18:41:49.251Z,100228.78
2023-03-14T18:44:16.057Z,100237.69
2023-03-14T18:46:42.663Z,100239.88
2023-03-14T18:49:11.120Z,100248.28
2023-03-14T18:51:37.787Z,100249.31
2023-03-14T18:54:10.421Z,100259.03
2023-03-14T18:56:39.603Z,100262.94
2023-03-14T18:59:06.441Z,100258.59
2023-03-14T19:01:34.088Z,100278.41
2023-03-14T19:04:01.433Z,100267.53
2023-03-14T19:06:29.249Z,100277.59
2023-03-14T19:08:55.696Z,100278.28
2023-03-14T19:11:22.096Z,100285.50
2023-03-14T19:13:49.526Z,100297.09
2023-03-14T19:16:16.540Z,100308.19
2023-03-14T19:18:43.468Z,100310.72
2023-03-14T19:21:12.772Z,100288.56
2023-03-14T19:23:42.133Z,100296.44
2023-03-14T19:26:09.791Z,100311.22
2023-03-14T19:28:36.210Z,100309.69
2023-03-14T19:31:04.175Z,100320.31
2023-03-14T19:33:31.822Z,100324.69
2023-03-14T19:35:58.420Z,100319.47
2023-03-14T19:38:24.918Z,100343.13
2023-03-14T19:40:58.043Z,100334.75
2023-03-14T19:43:25.147Z,100338.94
2023-03-14T19:45:51.766Z,100343.13
2023-03-14T19:48:18.331Z,100337.41
2023-03-14T19:50:44.805Z,100343.81
2023-03-14T19:53:11.529Z,100359.59
2023-03-14T19:55:38.099Z,100371.81
2023-03-14T19:58:05.457Z,100369.47
2023-03-14T20:00:32.074Z,100387.09
2023-03-14T20:02:58.675Z,100387.78
2023-03-14T20:05:25.250Z,100389.09
2023-03-14T20:07:51.818Z,100405.88
2023-03-14T20:10:22.802Z,100403.19
2023-03-14T20:12:53.206Z,100400.84
2023-03-14T20:15:21.477Z,100406.53
2023-03-14T20:17:49.048Z,100421.63
2023-03-14T20:20:16.065Z,100412.19
2023-03-14T20:22:43.093Z,100428.50
2023-03-14T20:25:11.810Z,100435.22
2023-03-14T20:27:38.889Z,100443.75
2023-03-14T20:30:09.831Z,100443.97
2023-03-14T20:32:37.058Z,100440.41
2023-03-14T20:35:03.671Z,100448.78
2023-03-14T20:37:30.076Z,100451.16
2023-03-14T20:39:56.555Z,100454.81
2023-03-14T20:42:24.401Z,100455.97
2023-03-14T20:44:50.892Z,100462.53
2023-03-14T20:47:17.396Z,100465.38
2023-03-14T20:49:43.895Z,100468.53
2023-03-14T20:52:11.855Z,100462.84
2023-03-14T20:54:39.074Z,100467.50
2023-03-14T20:57:06.279Z,100468.28
2023-03-14T20:59:32.868Z,100474.78
2023-03-14T21:01:59.473Z,100475.13
2023-03-14T21:04:26.330Z,100473.09
2023-03-14T21:06:56.106Z,100481.28
2023-03-14T21:09:26.218Z,100480.75
2023-03-14T21:11:53.014Z,100487.28
2023-03-14T21:14:19.849Z,100490.81
2023-03-14T21:16:46.689Z,100491.81
2023-03-14T21:19:13.359Z,100500.50
2023-03-14T21:21:39.883Z,100497.13
2023-03-14T21:24:06.957Z,100497.44
2023-03-14T21:26:33.699Z,100501.63
2023-03-14T21:29:03.049Z,100504.69
2023-03-14T21:31:30.706Z,100499.44
2023-03-14T21:33:58.788Z,100508.28
2023-03-14T21:36:25.315Z,100507.22
2023-03-14T21:38:51.845Z,100505.38
2023-03-14T21:41:18.311Z,100516.41
2023-03-14T21:43:45.904Z,100482.38
2023-03-14T21:46:13.000Z,100511.69
2023-03-14T21:48:39.470Z,100517.22
2023-03-14T21:51:06.894Z,100529.75
2023-03-14T21:53:34.523Z,100523.22
2023-03-14T21:56:01.732Z,100532.56
2023-03-14T21:58:28.297Z,100533.31
2023-03-14T22:01:02.492Z,100535.03
2023-03-14T22:03:30.218Z,100538.69
2023-03-14T22:05:56.676Z,100540.75
2023-03-14T22:08:23.112Z,100540.25
2023-03-14T22:10:51.651Z,100548.28
2023-03-14T22:13:19.033Z,100553.34
2023-03-14T22:15:47.447Z,100545.16
2023-03-14T22:18:15.728Z,100530.53
2023-03-14T22:20:43.074Z,100559.91
2023-03-14T22:23:10.488Z,100560.59
2023-03-14T22:25:40.692Z,100563.88
2023-03-14T22:28:07.173Z,100560.34
2023-03-14T22:30:33.641Z,100554.78
2023-03-14T22:33:00.714Z,100566.56
2023-03-14T22:35:27.721Z,100572.22
2023-03-14T22:37:54.483Z,100565.50
2023-03-14T22:40:21.031Z,100556.41
2023-03-14T22:42:48.238Z,100574.28
2023-03-14T22:45:15.527Z,100568.94
2023-03-14T22:47:41.967Z,100565.03
2023-03-14T22:50:08.837Z,100575.47
2023-03-14T22:52:35.544Z,100567.84
2023-03-14T22:55:02.013Z,100561.41
2023-03-14T22:57:28.594Z,100557.44
2023-03-14T22:59:55.175Z,100570.81
2023-03-14T23:02:21.733Z,100573.94
2023-03-14T23:04:48.326Z,100586.66
2023-03-14T23:07:16.096Z,100587.94
2023-03-14T23:09:42.550Z,100593.28
2023-03-14T23:12:09.322Z,100591.31
2023-03-14T23:14:35.922Z,100595.00
2023-03-14T23:17:05.566Z,100599.63
2023-03-14T23:19:32.106Z,100600.34
2023-03-14T23:21:58.586Z,100595.81
2023-03-14T23:24:25.052Z,100601.59
2023-03-14T23:26:51.647Z,100602.59
2023-03-14T23:29:18.159Z,100608.97
2023-03-14T23:31:44.689Z,100611.94
2023-03-14T23:34:11.190Z,100606.44
2023-03-14T23:36:38.186Z,100608.25
2023-03-14T23:39:06.787Z,100614.47
2023-03-14T23:41:34.039Z,100622.19
2023-03-14T23:44:01.908Z,100624.31
2023-03-14T23:46:29.799Z,100624.47
2023-03-14T23:48:56.605Z,100627.13
2023-03-14T23:51:23.379Z,100622.34
2023-03-14T23:53:49.937Z,100625.09
2023-03-14T23:56:17.757Z,100621.63
2023-03-14T23:58:44.222Z,100623.72
